createdAt,value
2022-09-24T00:03:44.805Z,0
2022-09-24T00:10:04.763Z,0
2022-09-24T00:16:27.833Z,0
2022-09-24T00:22:47.783Z,0
2022-09-24T00:29:10.830Z,0
2022-09-24T00:35:30.775Z,0
2022-09-24T00:41:53.819Z,0
2022-09-24T00:48:13.783Z,0
2022-09-24T00:54:36.822Z,0
2022-09-24T01:00:56.839Z,0
2022-09-24T01:07:19.731Z,0
2022-09-24T01:13:43.029Z,0
2022-09-24T01:20:02.791Z,0
2022-09-24T01:26:22.855Z,0
2022-09-24T01:32:45.781Z,0
2022-09-24T01:39:05.874Z,0
2022-09-24T01:45:28.986Z,0
2022-09-24T01:51:48.802Z,0
2022-09-24T01:58:11.744Z,0
2022-09-24T02:04:31.822Z,0
2022-09-24T02:10:54.794Z,0
2022-09-24T02:17:14.765Z,0
2022-09-24T02:23:37.792Z,0
2022-09-24T02:29:57.780Z,0
2022-09-24T02:36:20.776Z,0
2022-09-24T02:42:40.745Z,0
2022-09-24T02:49:03.929Z,0
2022-09-24T02:55:23.769Z,0
2022-09-24T03:01:47.070Z,0
2022-09-24T03:08:06.871Z,0
2022-09-24T03:14:29.877Z,0
2022-09-24T03:30:55.740Z,0
2022-09-24T03:37:15.719Z,0
2022-09-24T03:43:38.774Z,0
2022-09-24T03:50:00.313Z,0
2022-09-24T03:56:21.727Z,0
2022-09-24T04:02:41.768Z,0
2022-09-24T04:09:04.751Z,0
2022-09-24T04:15:24.771Z,0
2022-09-24T04:21:47.724Z,0
2022-09-24T04:28:07.837Z,0
2022-09-24T04:34:30.835Z,0
2022-09-24T04:40:50.805Z,0
2022-09-24T04:47:13.809Z,0
2022-09-24T04:53:33.750Z,0
2022-09-24T04:59:56.802Z,0
2022-09-24T05:06:16.797Z,0
2022-09-24T05:12:39.752Z,0
2022-09-24T05:18:59.764Z,0
2022-09-24T05:25:22.770Z,0
2022-09-24T05:31:42.886Z,0
2022-09-24T05:38:05.746Z,0
2022-09-24T05:44:25.774Z,0
2022-09-24T05:50:48.762Z,5.62
2022-09-24T05:57:08.735Z,5.62
2022-09-24T06:03:32.056Z,5.62
2022-09-24T06:09:51.857Z,5.62
2022-09-24T06:16:14.845Z,5.62
2022-09-24T06:22:34.867Z,11.25
2022-09-24T06:29:02.246Z,11.25
2022-09-24T06:35:17.807Z,11.25
2022-09-24T06:41:40.861Z,11.25
2022-09-24T06:48:00.723Z,16.88
2022-09-24T06:54:23.789Z,16.88
2022-09-24T07:00:43.799Z,22.5
2022-09-24T07:07:06.815Z,28.12
2022-09-24T07:13:26.743Z,33.75
2022-09-24T07:19:49.851Z,39.38
2022-09-24T07:26:09.783Z,45
2022-09-24T07:32:32.739Z,50.62
2022-09-24T07:38:52.812Z,56.25
2022-09-24T07:45:15.779Z,50.62
2022-09-24T07:51:35.749Z,45
2022-09-24T07:57:58.801Z,50.62
2022-09-24T08:04:18.789Z,45
2022-09-24T08:10:41.763Z,50.62
2022-09-24T08:17:01.925Z,45
2022-09-24T08:23:24.732Z,45
2022-09-24T08:29:44.773Z,50.62
2022-09-24T08:36:07.763Z,45
2022-09-24T08:58:43.594Z,56.25
2022-09-24T09:04:57.730Z,73.12
2022-09-24T09:11:20.788Z,78.75
2022-09-24T09:17:40.839Z,78.75
2022-09-24T09:24:03.743Z,78.75
2022-09-24T09:30:23.734Z,67.5
2022-09-24T09:36:46.772Z,67.5
2022-09-24T09:43:06.749Z,78.75
2022-09-24T09:49:29.746Z,78.75
2022-09-24T09:55:50.033Z,90
2022-09-24T10:02:12.772Z,84.38
2022-09-24T10:08:32.765Z,67.5
2022-09-24T10:14:55.758Z,67.5
2022-09-24T10:21:15.817Z,84.38
2022-09-24T10:27:38.765Z,67.5
2022-09-24T10:33:58.772Z,78.75
2022-09-24T10:40:21.836Z,84.38
2022-09-24T10:46:41.850Z,90
2022-09-24T10:53:05.122Z,78.75
2022-09-24T10:59:24.741Z,61.88
2022-09-24T11:05:47.783Z,73.12
2022-09-24T11:12:07.754Z,73.12
2022-09-24T11:18:30.733Z,67.5
2022-09-24T11:24:50.748Z,56.25
2022-09-24T11:31:13.808Z,45
2022-09-24T11:37:33.767Z,50.62
2022-09-24T11:43:56.724Z,50.62
2022-09-24T11:50:16.935Z,45
2022-09-24T11:56:39.756Z,50.62
2022-09-24T12:02:59.882Z,45
2022-09-24T12:09:22.770Z,45
2022-09-24T12:15:42.770Z,39.38
2022-09-24T12:22:05.783Z,39.38
2022-09-24T12:28:25.766Z,39.38
2022-09-24T12:34:48.766Z,50.62
2022-09-24T12:41:08.749Z,50.62
2022-09-24T12:47:31.865Z,45
2022-09-24T12:53:51.786Z,45
2022-09-24T13:00:14.774Z,45
2022-09-24T13:06:35.987Z,39.38
2022-09-24T13:12:58.744Z,39.38
2022-09-24T13:19:18.767Z,45
2022-09-24T13:25:41.804Z,33.75
2022-09-24T13:32:01.736Z,33.75
2022-09-24T13:38:24.779Z,45
2022-09-24T13:44:44.779Z,56.25
2022-09-24T13:51:07.768Z,56.25
2022-09-24T13:57:27.737Z,50.62
2022-09-24T14:03:50.757Z,39.38
2022-09-24T14:27:14.765Z,16.88
2022-09-24T14:33:34.763Z,16.88
2022-09-24T14:39:57.779Z,16.88
2022-09-24T14:46:17.872Z,11.25
2022-09-24T14:52:40.759Z,11.25
2022-09-24T14:59:00.834Z,11.25
2022-09-24T15:05:23.843Z,11.25
2022-09-24T15:11:44.038Z,11.25
2022-09-24T15:18:06.749Z,5.62
2022-09-24T15:24:26.881Z,11.25
2022-09-24T15:30:49.843Z,11.25
2022-09-24T15:37:09.741Z,11.25
2022-09-24T15:43:32.796Z,11.25
2022-09-24T15:49:52.782Z,5.62
2022-09-24T15:56:15.744Z,5.62
2022-09-24T16:02:35.980Z,5.62
2022-09-24T16:08:58.733Z,5.62
2022-09-24T16:15:18.768Z,5.62
2022-09-24T16:21:41.853Z,0
2022-09-24T16:28:01.740Z,0
2022-09-24T16:34:24.810Z,0
2022-09-24T16:40:44.884Z,0
2022-09-24T16:47:07.776Z,0
2022-09-24T16:53:27.750Z,0
2022-09-24T16:59:50.758Z,0
2022-09-24T17:06:10.748Z,0
2022-09-24T17:12:33.737Z,0
2022-09-24T17:18:53.835Z,0
2022-09-24T17:25:16.758Z,0
2022-09-24T17:31:36.783Z,0
2022-09-24T17:37:59.871Z,0
2022-09-24T17:44:19.732Z,0
2022-09-24T17:50:42.757Z,0
2022-09-24T17:57:02.746Z,0
2022-09-24T18:03:25.734Z,0
2022-09-24T18:09:45.740Z,0
2022-09-24T18:16:08.834Z,0
2022-09-24T18:22:28.798Z,0
2022-09-24T18:28:51.737Z,0
2022-09-24T18:35:11.758Z,0
2022-09-24T18:41:34.983Z,0
2022-09-24T18:47:54.734Z,0
2022-09-24T18:54:17.774Z,0
2022-09-24T19:00:37.737Z,0
2022-09-24T19:07:00.808Z,0
2022-09-24T19:13:25.507Z,0
2022-09-24T19:19:46.361Z,0
2022-09-24T19:26:04.845Z,0
2022-09-24T19:49:28.769Z,0
2022-09-24T19:55:51.722Z,0
2022-09-24T20:02:11.947Z,0
2022-09-24T20:08:34.754Z,0
2022-09-24T20:14:54.738Z,0
2022-09-24T20:21:17.754Z,0
2022-09-24T20:27:37.776Z,0
2022-09-24T20:34:00.776Z,0
2022-09-24T20:40:20.782Z,0
2022-09-24T20:46:43.774Z,0
2022-09-24T20:53:03.767Z,0
2022-09-24T20:59:26.801Z,0
2022-09-24T21:05:46.809Z,0
2022-09-24T21:12:09.733Z,0
2022-09-24T21:18:38.429Z,0
2022-09-24T21:24:52.843Z,0
2022-09-24T21:31:12.823Z,0
2022-09-24T21:37:35.797Z,0
2022-09-24T21:43:55.765Z,0
2022-09-24T21:50:18.725Z,0
2022-09-24T21:56:38.785Z,0
2022-09-24T22:20:55.793Z,0
2022-09-24T22:27:15.749Z,0
2022-09-24T22:33:38.766Z,0
2022-09-24T22:39:58.796Z,0
2022-09-24T22:46:21.814Z,0
2022-09-24T22:52:41.777Z,0
2022-09-24T22:59:04.783Z,0
2022-09-24T23:05:24.862Z,0
2022-09-24T23:11:47.730Z,0
2022-09-24T23:18:07.826Z,0
2022-09-24T23:24:30.757Z,0
2022-09-24T23:30:50.779Z,0
2022-09-24T23:37:13.783Z,0
2022-09-24T23:43:33.760Z,0
2022-09-24T23:49:56.776Z,0
2022-09-24T23:56:16.769Z,0
